Bryce, UT (84764)

11:00 AM MDT on July 27, 2016 (GMT -0600)
Bryce Canyon | | Change Station

Elev 7585 ft 37.71 °N, 112.15 °W | Updated 7 minutes ago

Clear
Clear
82 °F
Feels Like 82 °F
N
5
Wind Variable Wind from Variable

Today
High -- | Low -- °F
--% Chance of Precip.
Yesterday
High -- | Low -- °F
Precip. -- in
Pressure 30.01 in
Visibility 10.0 miles
Clouds Clear
Dew Point 37 °F
Humidity 20%
Rainfall 0.00 in
Snow Depth Not available.
6:28 AM 8:41 PM
Last Quarter, 41% visible
METAR KBCE 271653Z AUTO VRB04KT 10SM CLR 28/03 A3041 RMK AO2 SLP163 T02780028
Pressure 30.01 in
Visibility 10.0 miles
Clouds Clear
Dew Point 37 °F
Humidity 20%
Rainfall 0.00 in
Snow Depth Not available.
6:28 AM 8:41 PM
Last Quarter, 41% visible
METAR KBCE 271653Z AUTO VRB04KT 10SM CLR 28/03 A3041 RMK AO2 SLP163 T02780028

10-Day Weather Forecast

Almanac

Astronomy

Jul. 27, 2016 Rise Set
Actual Time
Civil Twilight
Nautical Twilight
Astronomical Twilight
Moon
Length of Visible Light
Length of Day
Tomorrow will be .
, % of the Moon is Illuminated

Today's Extremes

State Highs State Lows

Community

WunderPhotos

Upload Photos

1,927,880 photos uploaded!

WunderBlog® & News

Nearby

Air Quality

  Air Quality AQ Index Pollutant
Not available.

Snow Depth

Station Depth Elevation

Earthquake Activity

City Distance Mag. Time & Date
Minimum magnitude displayed is 2.5.

Coastal Water Temperatures

Place Temperature

Stations

Nearby Weather Stations

Station Location Temp. Windchill Dew Point Humidity Wind Precip. Elev Updated Type
                   

Watches & Warnings

There are currently no watches in effect.